createdAt,value
2022-10-13T00:00:50.364Z,18.60
2022-10-13T00:03:17.791Z,18.73
2022-10-13T00:05:50.841Z,18.65
2022-10-13T00:08:21.120Z,19.35
2022-10-13T00:10:50.325Z,19.50
2022-10-13T00:13:18.332Z,15.73
2022-10-13T00:15:46.732Z,23.58
2022-10-13T00:18:14.067Z,24.63
2022-10-13T00:20:46.136Z,18.30
2022-10-13T00:23:13.986Z,24.35
2022-10-13T00:25:42.653Z,19.27
2022-10-13T00:28:09.931Z,23.65
2022-10-13T00:30:38.122Z,17.05
2022-10-13T00:33:05.821Z,23.02
2022-10-13T00:35:33.129Z,20.73
2022-10-13T00:38:00.084Z,19.67
2022-10-13T00:40:26.886Z,19.27
2022-10-13T00:42:53.665Z,22.23
2022-10-13T00:45:29.403Z,21.85
2022-10-13T00:48:00.681Z,27.85
2022-10-13T00:50:36.294Z,18.67
2022-10-13T00:53:04.286Z,20.27
2022-10-13T00:55:34.113Z,21.20
2022-10-13T00:58:05.817Z,20.95
2022-10-13T01:00:34.313Z,25.65
2022-10-13T01:03:02.267Z,20.40
2022-10-13T01:05:30.294Z,18.23
2022-10-13T01:07:58.841Z,18.63
2022-10-13T01:10:44.651Z,28.88
2022-10-13T01:13:20.576Z,15.30
2022-10-13T01:16:00.927Z,20.42
2022-10-13T01:18:45.690Z,19.10
2022-10-13T01:21:22.373Z,23.40
2022-10-13T01:23:55.116Z,24.70
2022-10-13T01:26:25.129Z,21.52
2022-10-13T01:29:11.003Z,20.10
2022-10-13T01:31:56.641Z,21.33
2022-10-13T01:34:39.837Z,18.92
2022-10-13T01:37:31.481Z,23.40
2022-10-13T01:40:04.908Z,18.15
2022-10-13T01:42:42.886Z,19.20
2022-10-13T01:45:12.646Z,17.42
2022-10-13T01:47:40.292Z,19.95
2022-10-13T01:50:08.586Z,23.20
2022-10-13T01:52:39.060Z,19.52
2022-10-13T01:55:08.864Z,22.10
2022-10-13T01:57:39.692Z,20.35
2022-10-13T02:00:11.590Z,19.13
2022-10-13T02:02:43.489Z,20.85
2022-10-13T02:05:24.939Z,20.08
2022-10-13T02:08:25.161Z,19.67
2022-10-13T02:11:18.323Z,20.25
2022-10-13T02:13:59.473Z,20.05
2022-10-13T02:16:31.057Z,19.85
2022-10-13T02:18:58.512Z,22.83
2022-10-13T02:21:26.258Z,26.88
2022-10-13T02:23:53.128Z,18.90
2022-10-13T02:26:20.192Z,17.35
2022-10-13T02:28:46.990Z,20.92
2022-10-13T02:31:13.840Z,24.95
2022-10-13T02:33:40.669Z,24.17
2022-10-13T02:36:07.619Z,17.73
2022-10-13T02:38:34.520Z,24.50
2022-10-13T02:41:02.745Z,22.73
2022-10-13T02:43:30.347Z,17.60
2022-10-13T02:45:57.103Z,25.95
2022-10-13T02:48:24.060Z,20.38
2022-10-13T02:50:50.825Z,25.17
2022-10-13T02:53:17.760Z,20.67
2022-10-13T02:55:44.616Z,22.17
2022-10-13T02:58:11.480Z,21.65
2022-10-13T03:00:39.896Z,19.67
2022-10-13T03:03:07.097Z,16.95
2022-10-13T03:05:33.923Z,17.00
2022-10-13T03:08:00.733Z,19.55
2022-10-13T03:10:28.105Z,18.30
2022-10-13T03:12:55.805Z,20.95
2022-10-13T03:15:22.872Z,19.92
2022-10-13T03:17:50.045Z,19.98
2022-10-13T03:20:17.112Z,20.10
2022-10-13T03:22:47.388Z,19.10
2022-10-13T03:25:16.538Z,19.38
2022-10-13T03:27:43.299Z,25.30
2022-10-13T03:30:10.931Z,21.08
2022-10-13T03:32:37.693Z,20.60
2022-10-13T03:35:05.810Z,20.77
2022-10-13T03:37:32.574Z,20.13
2022-10-13T03:40:00.004Z,20.75
2022-10-13T03:42:26.769Z,22.70
2022-10-13T03:44:56.304Z,24.38
2022-10-13T03:47:23.607Z,25.23
2022-10-13T03:49:50.350Z,24.45
2022-10-13T03:52:17.292Z,22.98
2022-10-13T03:54:44.381Z,21.25
2022-10-13T03:57:11.139Z,26.20
2022-10-13T03:59:40.640Z,21.10
2022-10-13T04:02:08.200Z,17.30
2022-10-13T04:04:37.173Z,25.20
2022-10-13T04:07:04.056Z,20.55
2022-10-13T04:09:31.093Z,22.83
2022-10-13T04:11:57.833Z,22.00
2022-10-13T04:14:24.554Z,23.70
2022-10-13T04:16:51.339Z,22.98
2022-10-13T04:19:18.183Z,20.58
2022-10-13T04:21:45.148Z,23.45
2022-10-13T04:24:17.589Z,24.55
2022-10-13T04:26:45.245Z,24.33
2022-10-13T04:29:12.995Z,23.38
2022-10-13T04:31:42.643Z,24.25
2022-10-13T04:34:10.161Z,27.02
2022-10-13T04:36:37.132Z,18.55
2022-10-13T04:39:04.593Z,21.50
2022-10-13T04:41:31.428Z,21.40
2022-10-13T04:43:59.152Z,19.60
2022-10-13T04:46:27.277Z,23.30
2022-10-13T04:48:55.481Z,24.40
2022-10-13T04:51:25.084Z,21.98
2022-10-13T04:54:01.058Z,26.05
2022-10-13T04:56:29.084Z,20.75
2022-10-13T04:58:56.051Z,23.38
2022-10-13T05:01:24.614Z,30.67
2022-10-13T05:03:56.716Z,20.20
2022-10-13T05:06:26.666Z,23.13
2022-10-13T05:08:53.743Z,22.80
2022-10-13T05:11:20.694Z,22.80
2022-10-13T05:13:48.612Z,26.02
2022-10-13T05:16:17.127Z,24.67
2022-10-13T05:18:44.777Z,27.80
2022-10-13T05:21:14.664Z,27.80
2022-10-13T05:23:42.086Z,21.27
2022-10-13T05:26:12.100Z,27.85
2022-10-13T05:28:39.423Z,26.08
2022-10-13T05:31:15.432Z,31.02
2022-10-13T05:33:43.220Z,28.88
2022-10-13T05:36:22.406Z,29.35
2022-10-13T05:38:54.143Z,27.55
2022-10-13T05:41:22.491Z,23.30
2022-10-13T05:43:51.193Z,22.83
2022-10-13T05:46:17.943Z,26.92
2022-10-13T05:48:44.711Z,38.08
2022-10-13T05:51:16.199Z,26.40
2022-10-13T05:53:54.106Z,23.55
2022-10-13T05:56:27.243Z,28.42
2022-10-13T05:59:02.618Z,22.13
2022-10-13T06:01:32.823Z,24.55
2022-10-13T06:04:04.343Z,20.33
2022-10-13T06:06:31.794Z,24.23
2022-10-13T06:09:00.003Z,24.42
2022-10-13T06:11:27.366Z,24.13
2022-10-13T06:13:54.143Z,23.42
2022-10-13T06:16:20.943Z,25.55
2022-10-13T06:18:47.946Z,26.60
2022-10-13T06:21:14.975Z,28.80
2022-10-13T06:23:41.769Z,24.80
2022-10-13T06:26:11.566Z,23.42
2022-10-13T06:28:38.428Z,26.20
2022-10-13T06:31:06.995Z,32.47
2022-10-13T06:33:34.328Z,23.00
2022-10-13T06:36:03.346Z,25.98
2022-10-13T06:38:30.851Z,24.85
2022-10-13T06:41:05.390Z,27.50
2022-10-13T06:43:39.883Z,26.05
2022-10-13T06:46:07.580Z,28.02
2022-10-13T06:48:34.807Z,32.03
2022-10-13T06:51:07.658Z,24.50
2022-10-13T06:53:34.983Z,29.55
2022-10-13T06:56:06.085Z,27.98
2022-10-13T06:58:34.076Z,25.80
2022-10-13T07:01:01.057Z,22.52
2022-10-13T07:03:28.197Z,24.15
2022-10-13T07:05:55.279Z,27.48
2022-10-13T07:08:22.024Z,25.52
2022-10-13T07:10:48.856Z,27.90
2022-10-13T07:13:15.693Z,28.20
2022-10-13T07:15:42.519Z,27.05
2022-10-13T07:18:09.415Z,32.22
2022-10-13T07:20:36.213Z,32.15
2022-10-13T07:23:03.349Z,28.38
2022-10-13T07:25:30.190Z,30.95
2022-10-13T07:27:59.186Z,23.98
2022-10-13T07:30:26.659Z,32.05
2022-10-13T07:32:53.629Z,38.00
2022-10-13T07:35:24.747Z,27.90
2022-10-13T07:37:55.018Z,31.30
2022-10-13T07:40:21.924Z,28.80
2022-10-13T07:42:48.721Z,24.73
2022-10-13T07:45:15.720Z,35.63
2022-10-13T07:47:42.507Z,28.95
2022-10-13T07:50:10.516Z,25.15
2022-10-13T07:52:37.420Z,28.08
2022-10-13T07:55:04.600Z,31.50
2022-10-13T07:57:31.440Z,28.63
2022-10-13T07:59:58.258Z,28.38
2022-10-13T08:02:26.227Z,27.90
2022-10-13T08:04:53.069Z,28.25
2022-10-13T08:07:20.197Z,32.55
2022-10-13T08:09:47.239Z,22.13
2022-10-13T08:12:14.031Z,30.35
2022-10-13T08:14:42.114Z,28.33
2022-10-13T08:17:09.028Z,28.45
2022-10-13T08:19:35.875Z,28.65
2022-10-13T08:22:05.576Z,29.20
2022-10-13T08:24:36.069Z,25.55
2022-10-13T08:27:03.160Z,28.95
2022-10-13T08:29:30.010Z,24.27
2022-10-13T08:31:56.977Z,23.75
2022-10-13T08:34:25.071Z,31.08
2022-10-13T08:36:54.626Z,27.42
2022-10-13T08:39:22.552Z,35.40
2022-10-13T08:41:50.133Z,26.83
2022-10-13T08:47:13.489Z,24.92
2022-10-13T08:49:42.454Z,29.27
2022-10-13T08:52:19.208Z,29.38
2022-10-13T08:54:46.645Z,23.88
2022-10-13T08:57:13.676Z,27.55
2022-10-13T08:59:40.530Z,33.13
2022-10-13T09:02:33.553Z,27.77
2022-10-13T09:05:03.695Z,24.27
2022-10-13T09:07:34.996Z,26.67
2022-10-13T09:10:01.975Z,23.88
2022-10-13T09:12:28.786Z,27.30
2022-10-13T09:15:09.766Z,25.15
2022-10-13T09:17:38.787Z,36.05
2022-10-13T09:20:27.776Z,30.13
2022-10-13T09:23:19.875Z,26.65
2022-10-13T09:25:52.280Z,28.50
2022-10-13T09:28:30.780Z,30.20
2022-10-13T09:31:27.892Z,25.95
2022-10-13T09:34:01.509Z,27.30
2022-10-13T09:36:29.030Z,26.70
2022-10-13T09:39:13.649Z,29.02
2022-10-13T09:41:42.710Z,27.58
2022-10-13T09:44:28.736Z,26.20
2022-10-13T09:47:01.100Z,30.30
2022-10-13T09:49:39.908Z,26.45
2022-10-13T09:52:19.860Z,29.35
2022-10-13T09:54:51.120Z,29.08
2022-10-13T09:57:34.409Z,26.70
2022-10-13T10:00:04.449Z,26.25
2022-10-13T10:03:00.332Z,34.42
2022-10-13T10:05:56.251Z,31.90
2022-10-13T10:09:02.068Z,24.95
2022-10-13T10:11:35.224Z,27.50
2022-10-13T10:14:17.009Z,25.92
2022-10-13T10:21:08.395Z,24.52
2022-10-13T10:23:44.563Z,27.80
2022-10-13T10:26:24.231Z,25.92
2022-10-13T10:29:14.762Z,24.55
2022-10-13T10:32:14.641Z,24.33
2022-10-13T10:35:04.855Z,26.77
2022-10-13T10:37:46.487Z,24.92
2022-10-13T10:40:13.552Z,25.83
2022-10-13T10:42:58.732Z,18.80
2022-10-13T10:45:28.450Z,23.63
2022-10-13T10:48:02.670Z,32.53
2022-10-13T10:50:31.384Z,30.85
2022-10-13T10:53:19.905Z,33.47
2022-10-13T10:55:52.959Z,29.55
2022-10-13T11:01:19.767Z,24.85
2022-10-13T11:04:35.675Z,27.02
2022-10-13T11:07:03.652Z,22.48
2022-10-13T11:09:42.719Z,26.30
2022-10-13T11:12:22.523Z,23.17
2022-10-13T11:15:21.824Z,31.05
2022-10-13T11:17:48.636Z,27.90
2022-10-13T11:20:21.613Z,32.17
2022-10-13T11:23:00.642Z,26.00
2022-10-13T11:25:45.124Z,26.40
2022-10-13T11:28:21.090Z,27.50
2022-10-13T11:31:17.994Z,33.42
2022-10-13T11:33:46.602Z,29.33
2022-10-13T11:36:32.311Z,31.13
2022-10-13T11:39:19.337Z,29.25
2022-10-13T11:42:14.232Z,33.35
2022-10-13T11:44:58.839Z,28.83
2022-10-13T11:48:04.073Z,23.20
2022-10-13T11:50:58.541Z,27.58
2022-10-13T11:53:40.385Z,21.65
2022-10-13T11:56:19.844Z,27.50
2022-10-13T11:58:46.703Z,29.38
2022-10-13T12:01:15.209Z,28.02
2022-10-13T12:03:44.512Z,25.15
2022-10-13T12:06:34.217Z,30.92
2022-10-13T12:09:15.807Z,22.90
2022-10-13T12:11:44.836Z,28.80
2022-10-13T12:14:24.162Z,26.20
2022-10-13T12:16:59.253Z,29.23
2022-10-13T12:19:28.757Z,25.92
2022-10-13T12:21:58.619Z,27.27
2022-10-13T12:24:28.376Z,30.33
2022-10-13T12:26:56.298Z,33.30
2022-10-13T12:29:31.044Z,30.58
2022-10-13T12:32:00.408Z,34.92
2022-10-13T12:34:28.349Z,39.00
2022-10-13T12:37:04.934Z,36.33
2022-10-13T12:39:34.631Z,33.38
2022-10-13T12:42:03.305Z,38.40
2022-10-13T12:44:32.331Z,34.28
2022-10-13T12:47:03.884Z,38.30
2022-10-13T12:49:37.414Z,40.35
2022-10-13T12:52:11.754Z,42.10
2022-10-13T12:54:46.081Z,39.42
2022-10-13T12:57:22.671Z,45.90
2022-10-13T12:59:49.617Z,40.00
2022-10-13T13:02:29.262Z,37.03
2022-10-13T13:04:56.177Z,41.78
2022-10-13T13:07:29.541Z,42.15
2022-10-13T13:10:01.461Z,43.88
2022-10-13T13:12:28.999Z,43.75
2022-10-13T13:14:56.836Z,39.05
2022-10-13T13:17:56.715Z,44.13
2022-10-13T13:20:37.711Z,42.28
2022-10-13T13:23:05.823Z,39.97
2022-10-13T13:25:32.649Z,40.25
2022-10-13T13:27:59.500Z,42.88
2022-10-13T13:30:26.727Z,34.55
2022-10-13T13:32:53.552Z,35.25
2022-10-13T13:35:20.438Z,40.28
2022-10-13T13:37:49.895Z,38.40
2022-10-13T13:40:28.253Z,39.58
2022-10-13T13:42:55.834Z,33.80
2022-10-13T13:45:24.951Z,38.22
2022-10-13T13:47:51.972Z,37.88
2022-10-13T13:50:35.965Z,39.00
2022-10-13T13:53:03.400Z,41.70
2022-10-13T13:55:30.581Z,41.13
2022-10-13T13:57:58.007Z,43.35
2022-10-13T14:00:24.909Z,40.10
2022-10-13T14:02:51.946Z,42.13
2022-10-13T14:05:18.867Z,38.92
2022-10-13T14:07:47.993Z,42.55
2022-10-13T14:10:15.130Z,39.85
2022-10-13T14:12:42.045Z,30.00
2022-10-13T14:15:09.606Z,47.55
2022-10-13T14:17:36.501Z,41.50
2022-10-13T14:20:03.492Z,36.75
2022-10-13T14:22:32.893Z,42.22
2022-10-13T14:24:59.735Z,53.03
2022-10-13T14:27:26.888Z,45.03
2022-10-13T14:29:54.980Z,48.30
2022-10-13T14:32:22.123Z,41.95
2022-10-13T14:34:51.706Z,49.67
2022-10-13T14:37:22.903Z,41.00
2022-10-13T14:39:50.149Z,44.45
2022-10-13T14:42:17.013Z,45.67
2022-10-13T14:44:43.933Z,43.35
2022-10-13T14:47:10.774Z,48.45
2022-10-13T14:49:37.800Z,49.92
2022-10-13T14:52:05.194Z,37.45
2022-10-13T14:54:34.592Z,47.97
2022-10-13T14:57:05.293Z,48.35
2022-10-13T14:59:32.354Z,47.83
2022-10-13T15:01:59.257Z,51.50
2022-10-13T15:04:26.686Z,43.22
2022-10-13T15:06:53.868Z,38.95
2022-10-13T15:09:25.542Z,41.35
2022-10-13T15:12:00.568Z,45.70
2022-10-13T15:14:27.492Z,38.83
2022-10-13T15:16:54.365Z,57.70
2022-10-13T15:19:21.191Z,36.70
2022-10-13T15:21:48.082Z,42.72
2022-10-13T15:24:18.415Z,60.92
2022-10-13T15:26:47.789Z,47.67
2022-10-13T15:29:14.584Z,35.00
2022-10-13T15:31:41.459Z,33.08
2022-10-13T15:34:08.359Z,29.15
2022-10-13T15:36:35.413Z,31.67
2022-10-13T15:39:02.314Z,27.55
2022-10-13T15:41:29.141Z,31.40
2022-10-13T15:43:56.028Z,25.83
2022-10-13T15:46:24.512Z,24.70
2022-10-13T15:48:53.438Z,25.63
2022-10-13T15:51:22.883Z,26.80
2022-10-13T15:53:50.033Z,32.35
2022-10-13T15:56:18.293Z,30.40
2022-10-13T15:58:45.617Z,28.65
2022-10-13T16:01:13.566Z,29.00
2022-10-13T16:03:41.073Z,25.23
2022-10-13T16:06:10.405Z,27.85
2022-10-13T16:08:39.519Z,31.08
2022-10-13T16:11:11.305Z,30.67
2022-10-13T16:13:39.336Z,32.20
2022-10-13T16:16:06.894Z,27.85
2022-10-13T16:18:36.412Z,32.67
2022-10-13T16:21:22.497Z,32.28
2022-10-13T16:23:49.973Z,32.28
2022-10-13T16:26:18.011Z,26.38
2022-10-13T16:28:46.067Z,27.75
2022-10-13T16:31:15.853Z,27.60
2022-10-13T16:33:44.113Z,27.40
2022-10-13T16:36:13.898Z,27.27
2022-10-13T16:38:42.345Z,21.30
2022-10-13T16:41:13.190Z,23.95
2022-10-13T16:43:40.755Z,30.73
2022-10-13T16:46:08.395Z,22.10
2022-10-13T16:48:35.614Z,23.58
2022-10-13T16:51:07.720Z,25.42
2022-10-13T16:53:35.494Z,25.67
2022-10-13T16:56:05.299Z,26.60
2022-10-13T16:58:32.508Z,21.88
2022-10-13T17:01:04.913Z,25.23
2022-10-13T17:03:31.851Z,24.38
2022-10-13T17:05:58.972Z,32.10
2022-10-13T17:08:26.011Z,24.83
2022-10-13T17:10:58.051Z,26.05
2022-10-13T17:13:25.537Z,28.20
2022-10-13T17:15:53.967Z,26.88
2022-10-13T17:18:20.921Z,32.38
2022-10-13T17:21:03.195Z,29.85
2022-10-13T17:23:31.041Z,33.03
2022-10-13T17:26:09.478Z,33.55
2022-10-13T17:28:37.271Z,33.22
2022-10-13T17:31:10.168Z,28.30
2022-10-13T17:33:39.106Z,32.13
2022-10-13T17:36:12.857Z,33.97
2022-10-13T17:38:40.061Z,31.92
2022-10-13T17:41:08.635Z,34.63
2022-10-13T17:43:37.352Z,35.35
2022-10-13T17:46:35.507Z,36.58
2022-10-13T17:49:02.382Z,32.08
2022-10-13T17:51:29.302Z,33.60
2022-10-13T17:53:59.233Z,38.55
2022-10-13T17:56:26.839Z,32.22
2022-10-13T17:58:54.323Z,32.35
2022-10-13T18:01:33.807Z,34.17
2022-10-13T18:04:03.140Z,41.00
2022-10-13T18:06:37.880Z,36.80
2022-10-13T18:09:07.988Z,30.50
2022-10-13T18:11:36.088Z,36.72
2022-10-13T18:14:03.452Z,31.10
2022-10-13T18:16:30.331Z,36.22
2022-10-13T18:18:57.200Z,34.03
2022-10-13T18:21:27.791Z,33.65
2022-10-13T18:23:59.896Z,36.95
2022-10-13T18:26:28.521Z,43.33
2022-10-13T18:28:57.078Z,38.85
2022-10-13T18:31:30.609Z,33.88
2022-10-13T18:34:00.139Z,42.55
2022-10-13T18:36:30.925Z,40.15
2022-10-13T18:39:07.515Z,43.88
2022-10-13T18:41:36.598Z,44.90
2022-10-13T18:44:04.306Z,42.97
2022-10-13T18:46:35.794Z,39.20
2022-10-13T18:49:07.216Z,44.28
2022-10-13T18:51:36.441Z,47.00
2022-10-13T18:54:04.856Z,40.70
2022-10-13T18:56:33.212Z,49.65
2022-10-13T18:59:01.994Z,51.67
2022-10-13T19:01:31.509Z,47.88
2022-10-13T19:03:58.428Z,42.50
2022-10-13T19:06:27.378Z,43.05
2022-10-13T19:09:03.477Z,43.90
2022-10-13T19:11:31.842Z,47.05
2022-10-13T19:14:00.193Z,50.35
2022-10-13T19:16:29.765Z,42.70
2022-10-13T19:18:56.828Z,44.15
2022-10-13T19:21:24.505Z,40.88
2022-10-13T19:23:51.743Z,48.63
2022-10-13T19:26:21.820Z,53.72
2022-10-13T19:28:48.775Z,47.03
2022-10-13T19:31:18.249Z,45.97
2022-10-13T19:33:47.182Z,46.38
2022-10-13T19:36:24.845Z,46.92
2022-10-13T19:38:52.238Z,50.65
2022-10-13T19:41:19.242Z,56.67
2022-10-13T19:43:46.081Z,49.92
2022-10-13T19:46:13.224Z,48.05
2022-10-13T19:48:40.068Z,45.80
2022-10-13T19:51:08.343Z,46.88
2022-10-13T19:53:36.478Z,40.63
2022-10-13T19:56:04.034Z,47.70
2022-10-13T19:58:30.919Z,46.13
2022-10-13T20:01:04.264Z,51.22
2022-10-13T20:03:31.382Z,48.13
2022-10-13T20:05:58.476Z,45.25
2022-10-13T20:08:25.356Z,46.92
2022-10-13T20:10:52.173Z,48.22
2022-10-13T20:13:19.155Z,51.13
2022-10-13T20:15:45.997Z,53.85
2022-10-13T20:18:13.051Z,49.95
2022-10-13T20:20:41.501Z,51.97
2022-10-13T20:23:08.991Z,54.08
2022-10-13T20:25:38.065Z,52.40
2022-10-13T20:28:06.141Z,53.05
2022-10-13T20:30:33.721Z,54.10
2022-10-13T20:33:00.862Z,55.90
2022-10-13T20:35:27.743Z,56.15
2022-10-13T20:37:54.914Z,47.17
2022-10-13T20:40:22.169Z,48.53
2022-10-13T20:42:52.769Z,50.70
2022-10-13T20:45:19.700Z,57.17
2022-10-13T20:47:47.452Z,56.30
2022-10-13T20:50:14.825Z,56.17
2022-10-13T20:52:41.735Z,64.15
2022-10-13T20:55:09.123Z,59.58
2022-10-13T20:57:35.874Z,52.55
2022-10-13T21:00:03.341Z,58.53
2022-10-13T21:02:30.159Z,60.95
2022-10-13T21:04:56.976Z,52.13
2022-10-13T21:07:24.203Z,71.55
2022-10-13T21:09:53.793Z,59.38
2022-10-13T21:12:21.430Z,60.47
2022-10-13T21:14:48.499Z,59.35
2022-10-13T21:17:15.342Z,48.58
2022-10-13T21:19:42.159Z,59.47
2022-10-13T21:22:09.206Z,62.95
2022-10-13T21:24:36.043Z,62.38
2022-10-13T21:27:02.978Z,63.83
2022-10-13T21:29:29.891Z,62.47
2022-10-13T21:31:56.664Z,57.17
2022-10-13T21:34:23.507Z,61.05
2022-10-13T21:36:50.281Z,52.28
2022-10-13T21:39:17.308Z,67.95
2022-10-13T21:41:44.057Z,62.03
2022-10-13T21:44:13.987Z,61.40
2022-10-13T21:46:41.181Z,63.15
2022-10-13T21:49:07.967Z,61.13
2022-10-13T21:51:37.248Z,60.78
2022-10-13T21:54:10.048Z,63.25
2022-10-13T21:56:38.264Z,62.35
2022-10-13T21:59:05.877Z,64.65
2022-10-13T22:01:33.318Z,74.00
2022-10-13T22:04:01.877Z,59.90
2022-10-13T22:06:30.735Z,71.68
2022-10-13T22:08:59.278Z,64.70
2022-10-13T22:11:29.378Z,63.65
2022-10-13T22:13:57.398Z,68.05
2022-10-13T22:16:31.021Z,68.93
2022-10-13T22:18:58.722Z,63.58
2022-10-13T22:21:29.345Z,69.35
2022-10-13T22:23:58.276Z,63.13
2022-10-13T22:26:25.907Z,69.68
2022-10-13T22:28:53.134Z,92.40
2022-10-13T22:31:20.069Z,72.35
2022-10-13T22:33:47.546Z,74.68
2022-10-13T22:36:17.370Z,67.88
2022-10-13T22:38:45.484Z,75.28
2022-10-13T22:41:13.364Z,78.63
2022-10-13T22:43:41.762Z,68.30
2022-10-13T22:46:08.531Z,70.90
2022-10-13T22:48:40.575Z,70.90
2022-10-13T22:51:08.033Z,79.35
2022-10-13T22:53:34.917Z,71.38
2022-10-13T22:56:08.842Z,79.20
2022-10-13T22:58:36.180Z,80.05
2022-10-13T23:01:12.730Z,77.75
2022-10-13T23:03:40.530Z,97.78
2022-10-13T23:06:12.316Z,86.82
2022-10-13T23:08:39.328Z,82.15
2022-10-13T23:11:06.504Z,113.30
2022-10-13T23:13:33.516Z,105.22
2022-10-13T23:16:04.328Z,98.22
2022-10-13T23:18:31.469Z,106.22
2022-10-13T23:20:58.324Z,82.32
2022-10-13T23:23:25.103Z,73.78
2022-10-13T23:25:51.872Z,68.50
2022-10-13T23:28:18.753Z,73.03
2022-10-13T23:30:45.543Z,61.95
2022-10-13T23:33:12.319Z,114.80
2022-10-13T23:35:39.118Z,72.55
2022-10-13T23:38:05.972Z,63.67
2022-10-13T23:40:34.117Z,66.30
2022-10-13T23:43:01.791Z,66.43
2022-10-13T23:45:28.532Z,57.50
2022-10-13T23:47:55.264Z,60.35
2022-10-13T23:50:22.019Z,66.25
2022-10-13T23:52:48.853Z,63.50
2022-10-13T23:55:15.857Z,74.45
2022-10-13T23:57:42.637Z,59.83
